sensor_id;sensor_type;location;lat;lon;timestamp;pressure;altitude;pressure_sealevel;temperature;humidity
73981;BME280;62348;51.412;5.436;2022-10-16T00:02:17;100890.00;;;11.81;90.37
73981;BME280;62348;51.412;5.436;2022-10-16T00:04:42;100890.25;;;11.79;90.42
73981;BME280;62348;51.412;5.436;2022-10-16T00:07:08;100890.25;;;11.79;90.41
73981;BME280;62348;51.412;5.436;2022-10-16T00:09:33;100894.06;;;11.83;90.30
73981;BME280;62348;51.412;5.436;2022-10-16T00:11:58;100888.66;;;11.83;90.46
73981;BME280;62348;51.412;5.436;2022-10-16T00:14:24;100884.31;;;11.82;90.25
73981;BME280;62348;51.412;5.436;2022-10-16T00:16:49;100890.81;;;11.81;90.16
73981;BME280;62348;51.412;5.436;2022-10-16T00:19:14;100886.50;;;11.80;90.19
73981;BME280;62348;51.412;5.436;2022-10-16T00:21:41;100888.09;;;11.81;90.11
73981;BME280;62348;51.412;5.436;2022-10-16T00:24:08;100886.50;;;11.80;90.16
73981;BME280;62348;51.412;5.436;2022-10-16T00:26:34;100875.34;;;11.82;90.31
73981;BME280;62348;51.412;5.436;2022-10-16T00:29:01;100885.94;;;11.78;90.34
73981;BME280;62348;51.412;5.436;2022-10-16T00:31:27;100880.22;;;11.80;90.06
73981;BME280;62348;51.412;5.436;2022-10-16T00:33:53;100880.53;;;11.78;90.14
73981;BME280;62348;51.412;5.436;2022-10-16T00:36:20;100883.25;;;11.78;90.27
73981;BME280;62348;51.412;5.436;2022-10-16T00:38:46;100893.50;;;11.71;90.38
73981;BME280;62348;51.412;5.436;2022-10-16T00:41:15;100904.88;;;11.73;89.88
73981;BME280;62348;51.412;5.436;2022-10-16T00:46:27;100899.47;;;11.73;89.88
73981;BME280;62348;51.412;5.436;2022-10-16T00:49:04;100901.09;;;11.69;90.07
73981;BME280;62348;51.412;5.436;2022-10-16T00:51:33;100911.09;;;11.63;90.05
73981;BME280;62348;51.412;5.436;2022-10-16T00:54:02;100905.69;;;11.63;89.86
73981;BME280;62348;51.412;5.436;2022-10-16T00:56:28;100894.56;;;11.60;89.91
73981;BME280;62348;51.412;5.436;2022-10-16T00:58:53;100891.03;;;11.59;89.73
73981;BME280;62348;51.412;5.436;2022-10-16T01:01:19;100892.91;;;11.59;89.39
73981;BME280;62348;51.412;5.436;2022-10-16T01:03:44;100901.31;;;11.52;89.60
73981;BME280;62348;51.412;5.436;2022-10-16T01:09:04;100886.13;;;11.51;89.86
73981;BME280;62348;51.412;5.436;2022-10-16T01:11:51;100889.38;;;11.53;89.82
73981;BME280;62348;51.412;5.436;2022-10-16T01:14:26;100882.06;;;11.48;90.07
73981;BME280;62348;51.412;5.436;2022-10-16T01:17:27;100886.13;;;11.51;89.76
73981;BME280;62348;51.412;5.436;2022-10-16T01:20:02;100891.25;;;11.42;89.74
73981;BME280;62348;51.412;5.436;2022-10-16T01:22:48;100886.94;;;11.46;89.70
73981;BME280;62348;51.412;5.436;2022-10-16T01:25:23;100890.16;;;11.43;89.65
73981;BME280;62348;51.412;5.436;2022-10-16T01:27:50;100892.28;;;11.36;89.85
73981;BME280;62348;51.412;5.436;2022-10-16T01:30:26;100893.94;;;11.37;90.00
73981;BME280;62348;51.412;5.436;2022-10-16T01:33:02;100895.53;;;11.33;89.94
73981;BME280;62348;51.412;5.436;2022-10-16T01:35:38;100899.06;;;11.33;89.67
73981;BME280;62348;51.412;5.436;2022-10-16T01:38:17;100897.16;;;11.29;89.71
73981;BME280;62348;51.412;5.436;2022-10-16T01:40:51;100899.88;;;11.29;89.86
73981;BME280;62348;51.412;5.436;2022-10-16T01:43:25;100913.66;;;11.27;89.92
73981;BME280;62348;51.412;5.436;2022-10-16T01:45:52;100899.31;;;11.27;89.91
73981;BME280;62348;51.412;5.436;2022-10-16T01:48:19;100900.13;;;11.27;90.03
73981;BME280;62348;51.412;5.436;2022-10-16T01:50:56;100900.38;;;11.26;90.25
73981;BME280;62348;51.412;5.436;2022-10-16T01:53:25;100902.56;;;11.29;90.65
73981;BME280;62348;51.412;5.436;2022-10-16T01:55:52;100901.72;;;11.23;90.88
73981;BME280;62348;51.412;5.436;2022-10-16T01:58:19;100899.03;;;11.28;90.85
73981;BME280;62348;51.412;5.436;2022-10-16T02:00:47;100898.75;;;11.25;91.32
73981;BME280;62348;51.412;5.436;2022-10-16T02:03:14;100904.44;;;11.28;91.00
73981;BME280;62348;51.412;5.436;2022-10-16T02:05:45;100901.47;;;11.30;91.16
73981;BME280;62348;51.412;5.436;2022-10-16T02:08:12;100892.84;;;11.33;90.97
73981;BME280;62348;51.412;5.436;2022-10-16T02:10:37;100909.34;;;11.31;90.64
73981;BME280;62348;51.412;5.436;2022-10-16T02:13:07;100909.31;;;11.26;90.95
73981;BME280;62348;51.412;5.436;2022-10-16T02:15:34;100898.75;;;11.25;90.65
73981;BME280;62348;51.412;5.436;2022-10-16T02:18:01;100896.31;;;11.28;90.76
73981;BME280;62348;51.412;5.436;2022-10-16T02:20:30;100894.72;;;11.27;90.42
73981;BME280;62348;51.412;5.436;2022-10-16T02:22:58;100895.50;;;11.28;90.51
73981;BME280;62348;51.412;5.436;2022-10-16T02:25:32;100891.75;;;11.29;90.98
73981;BME280;62348;51.412;5.436;2022-10-16T02:28:35;100902.28;;;11.30;90.64
73981;BME280;62348;51.412;5.436;2022-10-16T02:31:04;100899.88;;;11.29;90.64
73981;BME280;62348;51.412;5.436;2022-10-16T02:33:34;100892.56;;;11.29;90.52
73981;BME280;62348;51.412;5.436;2022-10-16T02:36:00;100902.84;;;11.27;90.54
73981;BME280;62348;51.412;5.436;2022-10-16T02:38:26;100905.78;;;11.26;90.65
73981;BME280;62348;51.412;5.436;2022-10-16T02:40:54;100909.84;;;11.23;90.58
73981;BME280;62348;51.412;5.436;2022-10-16T02:43:20;100912.28;;;11.25;90.63
73981;BME280;62348;51.412;5.436;2022-10-16T02:45:45;100899.56;;;11.25;90.38
73981;BME280;62348;51.412;5.436;2022-10-16T02:48:10;100904.44;;;11.23;90.32
73981;BME280;62348;51.412;5.436;2022-10-16T02:50:36;100896.31;;;11.23;90.47
73981;BME280;62348;51.412;5.436;2022-10-16T02:53:01;100904.69;;;11.22;90.48
73981;BME280;62348;51.412;5.436;2022-10-16T02:55:27;100907.41;;;11.22;90.48
73981;BME280;62348;51.412;5.436;2022-10-16T02:57:53;100902.25;;;11.20;90.61
73981;BME280;62348;51.412;5.436;2022-10-16T03:00:19;100901.44;;;11.20;90.62
73981;BME280;62348;51.412;5.436;2022-10-16T03:02:45;100902.50;;;11.19;90.68
73981;BME280;62348;51.412;5.436;2022-10-16T03:05:11;100913.88;;;11.16;90.81
73981;BME280;62348;51.412;5.436;2022-10-16T03:07:37;100922.53;;;11.18;90.52
73981;BME280;62348;51.412;5.436;2022-10-16T03:10:03;100918.44;;;11.15;90.71
73981;BME280;62348;51.412;5.436;2022-10-16T03:12:28;100918.44;;;11.15;90.82
73981;BME280;62348;51.412;5.436;2022-10-16T03:14:55;100914.09;;;11.09;90.71
73981;BME280;62348;51.412;5.436;2022-10-16T03:17:22;100927.13;;;11.12;90.77
73981;BME280;62348;51.412;5.436;2022-10-16T03:19:47;100936.03;;;11.12;90.77
73981;BME280;62348;51.412;5.436;2022-10-16T03:22:13;100935.22;;;11.12;90.82
73981;BME280;62348;51.412;5.436;2022-10-16T03:24:38;100931.97;;;11.10;90.71
73981;BME280;62348;51.412;5.436;2022-10-16T03:27:03;100928.97;;;11.11;91.01
73981;BME280;62348;51.412;5.436;2022-10-16T03:29:29;100942.25;;;11.13;91.15
73981;BME280;62348;51.412;5.436;2022-10-16T03:31:55;100947.13;;;11.11;91.34
73981;BME280;62348;51.412;5.436;2022-10-16T03:34:21;100937.94;;;11.12;91.36
73981;BME280;62348;51.412;5.436;2022-10-16T03:36:46;100927.13;;;11.12;91.56
73981;BME280;62348;51.412;5.436;2022-10-16T03:39:12;100921.44;;;11.13;91.28
73981;BME280;62348;51.412;5.436;2022-10-16T03:41:37;100932.28;;;11.13;91.42
73981;BME280;62348;51.412;5.436;2022-10-16T03:44:03;100943.91;;;11.14;91.56
73981;BME280;62348;51.412;5.436;2022-10-16T03:46:28;100940.09;;;11.15;91.46
73981;BME280;62348;51.412;5.436;2022-10-16T03:48:54;100936.34;;;11.16;91.56
73981;BME280;62348;51.412;5.436;2022-10-16T03:51:20;100955.03;;;11.18;91.56
73981;BME280;62348;51.412;5.436;2022-10-16T03:53:45;100963.94;;;11.18;91.69
73981;BME280;62348;51.412;5.436;2022-10-16T03:56:10;100965.00;;;11.17;91.52
73981;BME280;62348;51.412;5.436;2022-10-16T03:58:36;100950.97;;;11.20;91.67
73981;BME280;62348;51.412;5.436;2022-10-16T04:01:01;100959.88;;;11.21;91.68
73981;BME280;62348;51.412;5.436;2022-10-16T04:03:26;100958.03;;;11.21;91.81
73981;BME280;62348;51.412;5.436;2022-10-16T04:05:52;100955.03;;;11.23;91.66
73981;BME280;62348;51.412;5.436;2022-10-16T04:08:17;100953.41;;;11.22;91.78
73981;BME280;62348;51.412;5.436;2022-10-16T04:10:43;100956.94;;;11.22;91.89
73981;BME280;62348;51.412;5.436;2022-10-16T04:13:09;100967.50;;;11.24;91.74
73981;BME280;62348;51.412;5.436;2022-10-16T04:15:34;100962.63;;;11.26;91.68
73981;BME280;62348;51.412;5.436;2022-10-16T04:18:00;100970.19;;;11.24;92.08
73981;BME280;62348;51.412;5.436;2022-10-16T04:20:26;100968.56;;;11.23;91.85
73981;BME280;62348;51.412;5.436;2022-10-16T04:22:51;100967.25;;;11.25;91.83
73981;BME280;62348;51.412;5.436;2022-10-16T04:25:16;100965.34;;;11.26;91.82
73981;BME280;62348;51.412;5.436;2022-10-16T04:27:42;100958.03;;;11.26;91.96
73981;BME280;62348;51.412;5.436;2022-10-16T04:30:07;100965.63;;;11.29;91.98
73981;BME280;62348;51.412;5.436;2022-10-16T04:32:33;100968.34;;;11.29;92.03
73981;BME280;62348;51.412;5.436;2022-10-16T04:34:58;100976.75;;;11.33;92.06
73981;BME280;62348;51.412;5.436;2022-10-16T04:37:24;100971.59;;;11.31;92.19
73981;BME280;62348;51.412;5.436;2022-10-16T04:39:50;100972.16;;;11.33;92.04
73981;BME280;62348;51.412;5.436;2022-10-16T04:42:16;100974.84;;;11.33;92.09
73981;BME280;62348;51.412;5.436;2022-10-16T04:44:41;100974.84;;;11.33;92.01
73981;BME280;62348;51.412;5.436;2022-10-16T04:47:07;100973.78;;;11.35;91.87
73981;BME280;62348;51.412;5.436;2022-10-16T04:49:33;100981.91;;;11.35;91.93
73981;BME280;62348;51.412;5.436;2022-10-16T04:51:58;100989.19;;;11.34;91.95
73981;BME280;62348;51.412;5.436;2022-10-16T04:54:23;100991.66;;;11.36;91.78
73981;BME280;62348;51.412;5.436;2022-10-16T04:56:49;100991.09;;;11.33;91.82
73981;BME280;62348;51.412;5.436;2022-10-16T04:59:17;100991.66;;;11.36;92.05
73981;BME280;62348;51.412;5.436;2022-10-16T05:01:43;100997.06;;;11.36;92.08
73981;BME280;62348;51.412;5.436;2022-10-16T05:04:08;100991.09;;;11.33;92.01
73981;BME280;62348;51.412;5.436;2022-10-16T05:06:34;100998.16;;;11.35;92.10
73981;BME280;62348;51.412;5.436;2022-10-16T05:08:59;100999.50;;;11.37;92.05
73981;BME280;62348;51.412;5.436;2022-10-16T05:11:25;101006.81;;;11.37;92.11
73981;BME280;62348;51.412;5.436;2022-10-16T05:13:50;101014.94;;;11.37;92.13
73981;BME280;62348;51.412;5.436;2022-10-16T05:16:15;101021.44;;;11.36;92.16
73981;BME280;62348;51.412;5.436;2022-10-16T05:18:41;101016.81;;;11.36;92.11
73981;BME280;62348;51.412;5.436;2022-10-16T05:21:06;101019.53;;;11.36;92.25
73981;BME280;62348;51.412;5.436;2022-10-16T05:23:32;101015.75;;;11.37;92.12
73981;BME280;62348;51.412;5.436;2022-10-16T05:25:58;101023.88;;;11.37;92.13
73981;BME280;62348;51.412;5.436;2022-10-16T05:28:26;101024.13;;;11.36;92.30
73981;BME280;62348;51.412;5.436;2022-10-16T05:30:51;101028.47;;;11.37;92.35
73981;BME280;62348;51.412;5.436;2022-10-16T05:33:17;101023.31;;;11.35;92.38
73981;BME280;62348;51.412;5.436;2022-10-16T05:35:42;101025.22;;;11.35;92.41
73981;BME280;62348;51.412;5.436;2022-10-16T05:38:09;101029.00;;;11.33;92.44
73981;BME280;62348;51.412;5.436;2022-10-16T05:40:34;101043.63;;;11.32;92.41
73981;BME280;62348;51.412;5.436;2022-10-16T05:43:00;101043.63;;;11.32;92.29
73981;BME280;62348;51.412;5.436;2022-10-16T05:45:25;101052.81;;;11.31;92.36
73981;BME280;62348;51.412;5.436;2022-10-16T05:47:51;101056.31;;;11.32;92.42
73981;BME280;62348;51.412;5.436;2022-10-16T05:50:16;101064.16;;;11.28;92.26
73981;BME280;62348;51.412;5.436;2022-10-16T05:52:42;101063.59;;;11.26;92.42
73981;BME280;62348;51.412;5.436;2022-10-16T05:55:07;101072.25;;;11.28;92.34
73981;BME280;62348;51.412;5.436;2022-10-16T05:57:33;101074.41;;;11.26;92.48
73981;BME280;62348;51.412;5.436;2022-10-16T05:59:58;101079.56;;;11.28;92.35
73981;BME280;62348;51.412;5.436;2022-10-16T06:02:24;101072.81;;;11.25;92.57
73981;BME280;62348;51.412;5.436;2022-10-16T06:04:51;101079.84;;;11.26;92.63
73981;BME280;62348;51.412;5.436;2022-10-16T06:07:18;101087.41;;;11.24;92.51
73981;BME280;62348;51.412;5.436;2022-10-16T06:09:44;101092.56;;;11.26;92.68
73981;BME280;62348;51.412;5.436;2022-10-16T06:12:12;101089.28;;;11.24;92.67
73981;BME280;62348;51.412;5.436;2022-10-16T06:14:38;101087.66;;;11.23;92.58
73981;BME280;62348;51.412;5.436;2022-10-16T06:17:03;101097.41;;;11.24;92.39
73981;BME280;62348;51.412;5.436;2022-10-16T06:19:28;101101.47;;;11.21;92.70
73981;BME280;62348;51.412;5.436;2022-10-16T06:21:54;101104.16;;;11.21;92.89
73981;BME280;62348;51.412;5.436;2022-10-16T06:24:19;101105.78;;;11.22;92.63
73981;BME280;62348;51.412;5.436;2022-10-16T06:26:45;101105.53;;;11.24;92.88
73981;BME280;62348;51.412;5.436;2022-10-16T06:29:10;101102.28;;;11.22;92.92
73981;BME280;62348;51.412;5.436;2022-10-16T06:31:35;101104.72;;;11.23;92.85
73981;BME280;62348;51.412;5.436;2022-10-16T06:34:01;101108.50;;;11.22;92.88
73981;BME280;62348;51.412;5.436;2022-10-16T06:36:27;101113.91;;;11.22;92.81
73981;BME280;62348;51.412;5.436;2022-10-16T06:38:53;101129.91;;;11.24;92.75
73981;BME280;62348;51.412;5.436;2022-10-16T06:41:20;101136.38;;;11.23;92.82
73981;BME280;62348;51.412;5.436;2022-10-16T06:43:46;101143.69;;;11.22;92.65
73981;BME280;62348;51.412;5.436;2022-10-16T06:46:14;101141.22;;;11.21;92.92
73981;BME280;62348;51.412;5.436;2022-10-16T06:48:40;101151.00;;;11.22;92.69
73981;BME280;62348;51.412;5.436;2022-10-16T06:53:37;101164.28;;;11.23;92.80
73981;BME280;62348;51.412;5.436;2022-10-16T06:56:23;101165.13;;;11.29;92.77
73981;BME280;62348;51.412;5.436;2022-10-16T06:58:50;101167.31;;;11.32;92.81
73981;BME280;62348;51.412;5.436;2022-10-16T07:01:17;101165.16;;;11.34;92.64
73981;BME280;62348;51.412;5.436;2022-10-16T07:03:44;101177.09;;;11.38;92.64
73981;BME280;62348;51.412;5.436;2022-10-16T07:06:12;101180.94;;;11.42;92.86
73981;BME280;62348;51.412;5.436;2022-10-16T07:08:41;101185.03;;;11.45;92.53
73981;BME280;62348;51.412;5.436;2022-10-16T07:11:09;101193.69;;;11.47;92.36
73981;BME280;62348;51.412;5.436;2022-10-16T07:13:36;101183.19;;;11.50;92.60
73981;BME280;62348;51.412;5.436;2022-10-16T07:16:08;101189.44;;;11.56;92.84
73981;BME280;62348;51.412;5.436;2022-10-16T07:18:34;101197.63;;;11.61;92.42
73981;BME280;62348;51.412;5.436;2022-10-16T07:21:06;101205.50;;;11.68;92.45
73981;BME280;62348;51.412;5.436;2022-10-16T07:23:33;101203.41;;;11.75;92.48
73981;BME280;62348;51.412;5.436;2022-10-16T07:25:59;101211.88;;;11.84;92.57
73981;BME280;62348;51.412;5.436;2022-10-16T07:28:25;101212.78;;;11.95;92.41
73981;BME280;62348;51.412;5.436;2022-10-16T07:30:50;101205.28;;;12.07;92.29
73981;BME280;62348;51.412;5.436;2022-10-16T07:33:16;101220.53;;;12.18;91.87
73981;BME280;62348;51.412;5.436;2022-10-16T07:35:54;101230.91;;;12.32;91.62
73981;BME280;62348;51.412;5.436;2022-10-16T07:38:20;101228.22;;;12.42;91.17
73981;BME280;62348;51.412;5.436;2022-10-16T07:40:46;101232.06;;;12.51;90.90
73981;BME280;62348;51.412;5.436;2022-10-16T07:43:12;101235.66;;;12.62;90.62
73981;BME280;62348;51.412;5.436;2022-10-16T07:45:46;101245.72;;;12.72;90.40
73981;BME280;62348;51.412;5.436;2022-10-16T07:48:12;101248.72;;;12.80;90.26
73981;BME280;62348;51.412;5.436;2022-10-16T07:50:37;101246.84;;;12.86;89.86
73981;BME280;62348;51.412;5.436;2022-10-16T07:53:03;101258.31;;;12.98;89.45
73981;BME280;62348;51.412;5.436;2022-10-16T07:55:29;101256.16;;;13.05;89.41
73981;BME280;62348;51.412;5.436;2022-10-16T07:57:54;101258.34;;;13.14;88.76
73981;BME280;62348;51.412;5.436;2022-10-16T08:00:20;101275.50;;;13.24;88.64
73981;BME280;62348;51.412;5.436;2022-10-16T08:02:45;101286.13;;;13.31;88.22
73981;BME280;62348;51.412;5.436;2022-10-16T08:05:11;101282.06;;;13.39;87.93
73981;BME280;62348;51.412;5.436;2022-10-16T08:07:36;101289.94;;;13.40;87.64
73981;BME280;62348;51.412;5.436;2022-10-16T08:10:02;101299.75;;;13.52;87.86
73981;BME280;62348;51.412;5.436;2022-10-16T08:12:28;101294.31;;;13.62;87.11
73981;BME280;62348;51.412;5.436;2022-10-16T08:14:53;101289.16;;;13.71;86.48
73981;BME280;62348;51.412;5.436;2022-10-16T08:17:18;101295.69;;;13.80;86.90
73981;BME280;62348;51.412;5.436;2022-10-16T08:19:45;101291.63;;;13.88;85.79
73981;BME280;62348;51.412;5.436;2022-10-16T08:22:11;101304.94;;;13.89;85.25
73981;BME280;62348;51.412;5.436;2022-10-16T08:24:36;101300.88;;;13.97;85.58
73981;BME280;62348;51.412;5.436;2022-10-16T08:27:02;101310.91;;;14.06;85.55
73981;BME280;62348;51.412;5.436;2022-10-16T08:29:28;101305.47;;;14.17;84.55
73981;BME280;62348;51.412;5.436;2022-10-16T08:31:53;101305.19;;;14.29;84.88
73981;BME280;62348;51.412;5.436;2022-10-16T08:34:19;101307.06;;;14.38;83.37
73981;BME280;62348;51.412;5.436;2022-10-16T08:36:44;101309.75;;;14.49;83.19
73981;BME280;62348;51.412;5.436;2022-10-16T08:39:09;101314.94;;;14.60;83.72
73981;BME280;62348;51.412;5.436;2022-10-16T08:41:50;101317.38;;;14.72;83.58
73981;BME280;62348;51.412;5.436;2022-10-16T08:44:29;101327.41;;;14.77;82.74
73981;BME280;62348;51.412;5.436;2022-10-16T08:47:23;101319.50;;;14.86;83.55
73981;BME280;62348;51.412;5.436;2022-10-16T08:50:10;101326.84;;;14.85;82.98
73981;BME280;62348;51.412;5.436;2022-10-16T08:52:40;101330.66;;;14.89;81.97
73981;BME280;62348;51.412;5.436;2022-10-16T08:55:19;101334.44;;;14.93;82.48
73981;BME280;62348;51.412;5.436;2022-10-16T08:57:49;101341.47;;;15.05;81.74
73981;BME280;62348;51.412;5.436;2022-10-16T09:00:15;101337.66;;;15.00;80.94
73981;BME280;62348;51.412;5.436;2022-10-16T09:02:52;101345.00;;;15.10;81.87
73981;BME280;62348;51.412;5.436;2022-10-16T09:05:30;101343.06;;;15.16;81.12
73981;BME280;62348;51.412;5.436;2022-10-16T09:13:51;101340.53;;;15.30;81.45
73981;BME280;62348;51.412;5.436;2022-10-16T09:16:33;101351.94;;;15.37;80.21
73981;BME280;62348;51.412;5.436;2022-10-16T09:19:05;101352.75;;;15.37;79.52
73981;BME280;62348;51.412;5.436;2022-10-16T09:21:41;101351.38;;;15.40;78.26
73981;BME280;62348;51.412;5.436;2022-10-16T09:24:19;101359.28;;;15.36;79.19
73981;BME280;62348;51.412;5.436;2022-10-16T09:26:46;101363.13;;;15.40;78.76
73981;BME280;62348;51.412;5.436;2022-10-16T09:29:16;101367.16;;;15.43;78.31
73981;BME280;62348;51.412;5.436;2022-10-16T09:31:42;101364.97;;;15.45;78.63
73981;BME280;62348;51.412;5.436;2022-10-16T09:34:35;101365.78;;;15.51;79.30
73981;BME280;62348;51.412;5.436;2022-10-16T09:37:09;101368.25;;;15.47;77.56
73981;BME280;62348;51.412;5.436;2022-10-16T09:39:47;101371.56;;;15.39;76.73
73981;BME280;62348;51.412;5.436;2022-10-16T09:44:51;101372.91;;;15.41;76.38
73981;BME280;62348;51.412;5.436;2022-10-16T09:47:21;101377.72;;;15.55;77.73
73981;BME280;62348;51.412;5.436;2022-10-16T09:49:57;101377.53;;;15.46;77.51
73981;BME280;62348;51.412;5.436;2022-10-16T09:52:26;101374.50;;;15.48;76.56
73981;BME280;62348;51.412;5.436;2022-10-16T09:54:53;101379.13;;;15.47;77.33
73981;BME280;62348;51.412;5.436;2022-10-16T09:57:20;101389.50;;;15.50;76.94
73981;BME280;62348;51.412;5.436;2022-10-16T09:59:54;101375.25;;;15.64;77.41
73981;BME280;62348;51.412;5.436;2022-10-16T10:04:54;101374.72;;;15.56;76.52
73981;BME280;62348;51.412;5.436;2022-10-16T10:07:27;101381.22;;;15.66;77.01
73981;BME280;62348;51.412;5.436;2022-10-16T10:09:55;101385.00;;;15.70;76.61
73981;BME280;62348;51.412;5.436;2022-10-16T10:12:27;101390.19;;;15.76;77.17
73981;BME280;62348;51.412;5.436;2022-10-16T10:14:55;101392.41;;;15.64;75.83
73981;BME280;62348;51.412;5.436;2022-10-16T10:17:26;101385.09;;;15.59;75.96
73981;BME280;62348;51.412;5.436;2022-10-16T10:19:53;101393.00;;;15.56;75.54
73981;BME280;62348;51.412;5.436;2022-10-16T10:22:30;101395.97;;;15.59;77.40
73981;BME280;62348;51.412;5.436;2022-10-16T10:24:59;101399.00;;;15.53;75.70
73981;BME280;62348;51.412;5.436;2022-10-16T10:38:33;101417.00;;;15.49;76.37
73981;BME280;62348;51.412;5.436;2022-10-16T10:41:07;101415.63;;;15.51;75.21
73981;BME280;62348;51.412;5.436;2022-10-16T10:46:39;101413.19;;;15.50;76.66
73981;BME280;62348;51.412;5.436;2022-10-16T11:00:16;101418.44;;;15.36;76.16
73981;BME280;62348;51.412;5.436;2022-10-16T11:02:41;101421.72;;;15.33;76.00
73981;BME280;62348;51.412;5.436;2022-10-16T11:07:52;101427.72;;;15.35;76.02
73981;BME280;62348;51.412;5.436;2022-10-16T11:10:27;101424.06;;;15.50;75.33
73981;BME280;62348;51.412;5.436;2022-10-16T11:13:28;101419.66;;;15.64;76.69
73981;BME280;62348;51.412;5.436;2022-10-16T11:15:59;101418.53;;;15.75;74.25
73981;BME280;62348;51.412;5.436;2022-10-16T11:18:47;101418.47;;;15.86;74.49
73981;BME280;62348;51.412;5.436;2022-10-16T11:21:18;101418.19;;;15.87;73.91
73981;BME280;62348;51.412;5.436;2022-10-16T11:24:04;101421.72;;;15.88;73.13
73981;BME280;62348;51.412;5.436;2022-10-16T11:26:35;101415.97;;;15.94;72.03
73981;BME280;62348;51.412;5.436;2022-10-16T11:29:05;101424.41;;;15.98;72.79
73981;BME280;62348;51.412;5.436;2022-10-16T11:31:46;101432.84;;;15.96;74.04
73981;BME280;62348;51.412;5.436;2022-10-16T11:34:17;101427.19;;;15.88;72.76
73981;BME280;62348;51.412;5.436;2022-10-16T11:39:28;101440.34;;;15.70;72.49
73981;BME280;62348;51.412;5.436;2022-10-16T11:42:09;101423.19;;;15.70;74.11
73981;BME280;62348;51.412;5.436;2022-10-16T11:50:34;101434.34;;;15.68;74.90
73981;BME280;62348;51.412;5.436;2022-10-16T11:53:09;101431.38;;;15.65;73.63
73981;BME280;62348;51.412;5.436;2022-10-16T11:55:39;101432.16;;;15.70;72.36
73981;BME280;62348;51.412;5.436;2022-10-16T12:00:56;101432.69;;;15.77;72.78
73981;BME280;62348;51.412;5.436;2022-10-16T12:09:21;101431.38;;;15.75;73.57
73981;BME280;62348;51.412;5.436;2022-10-16T12:11:47;101422.38;;;15.69;74.24
73981;BME280;62348;51.412;5.436;2022-10-16T12:19:16;101446.91;;;15.69;73.64
73981;BME280;62348;51.412;5.436;2022-10-16T12:21:43;101443.09;;;15.65;74.09
73981;BME280;62348;51.412;5.436;2022-10-16T12:24:33;101447.44;;;15.66;74.53
73981;BME280;62348;51.412;5.436;2022-10-16T12:26:59;101437.34;;;15.67;72.45
73981;BME280;62348;51.412;5.436;2022-10-16T12:29:39;101429.44;;;15.75;74.10
73981;BME280;62348;51.412;5.436;2022-10-16T12:32:38;101430.47;;;15.85;73.55
73981;BME280;62348;51.412;5.436;2022-10-16T12:35:16;101444.88;;;15.95;73.42
73981;BME280;62348;51.412;5.436;2022-10-16T12:37:42;101440.22;;;15.96;71.81
73981;BME280;62348;51.412;5.436;2022-10-16T12:40:25;101432.78;;;16.07;72.98
73981;BME280;62348;51.412;5.436;2022-10-16T12:42:51;101430.88;;;16.07;70.41
73981;BME280;62348;51.412;5.436;2022-10-16T12:45:37;101428.44;;;16.06;72.51
73981;BME280;62348;51.412;5.436;2022-10-16T12:48:17;101429.84;;;15.98;70.75
73981;BME280;62348;51.412;5.436;2022-10-16T12:50:43;101441.28;;;16.00;70.71
73981;BME280;62348;51.412;5.436;2022-10-16T12:53:21;101436.38;;;16.02;72.25
73981;BME280;62348;51.412;5.436;2022-10-16T13:01:12;101430.38;;;16.00;71.11
73981;BME280;62348;51.412;5.436;2022-10-16T13:04:06;101432.06;;;15.96;70.78
73981;BME280;62348;51.412;5.436;2022-10-16T13:23:01;101436.41;;;15.97;73.28
73981;BME280;62348;51.412;5.436;2022-10-16T13:25:53;101443.50;;;15.98;73.39
73981;BME280;62348;51.412;5.436;2022-10-16T13:28:27;101445.69;;;15.96;72.86
73981;BME280;62348;51.412;5.436;2022-10-16T13:30:57;101450.03;;;15.97;73.52
73981;BME280;62348;51.412;5.436;2022-10-16T13:33:33;101450.56;;;15.99;73.81
73981;BME280;62348;51.412;5.436;2022-10-16T13:36:01;101455.47;;;16.02;72.41
73981;BME280;62348;51.412;5.436;2022-10-16T13:38:30;101456.78;;;16.05;71.58
73981;BME280;62348;51.412;5.436;2022-10-16T13:41:03;101464.69;;;16.06;72.76
73981;BME280;62348;51.412;5.436;2022-10-16T13:43:38;101465.50;;;16.12;72.94
73981;BME280;62348;51.412;5.436;2022-10-16T13:46:20;101453.78;;;16.11;71.30
73981;BME280;62348;51.412;5.436;2022-10-16T13:48:59;101454.81;;;16.15;72.96
73981;BME280;62348;51.412;5.436;2022-10-16T13:51:25;101458.41;;;16.11;73.01
73981;BME280;62348;51.412;5.436;2022-10-16T13:53:51;101460.84;;;16.12;71.68
73981;BME280;62348;51.412;5.436;2022-10-16T13:56:19;101461.69;;;16.13;70.62
73981;BME280;62348;51.412;5.436;2022-10-16T13:58:45;101462.22;;;16.10;72.80
73981;BME280;62348;51.412;5.436;2022-10-16T14:01:18;101464.97;;;16.10;73.09
73981;BME280;62348;51.412;5.436;2022-10-16T14:03:44;101463.00;;;16.15;74.11
73981;BME280;62348;51.412;5.436;2022-10-16T14:06:16;101475.63;;;16.06;74.00
73981;BME280;62348;51.412;5.436;2022-10-16T14:08:45;101470.44;;;16.05;73.98
73981;BME280;62348;51.412;5.436;2022-10-16T14:11:20;101470.75;;;16.03;73.64
73981;BME280;62348;51.412;5.436;2022-10-16T14:13:47;101472.09;;;16.00;73.87
73981;BME280;62348;51.412;5.436;2022-10-16T14:16:27;101474.81;;;16.00;75.07
73981;BME280;62348;51.412;5.436;2022-10-16T14:19:02;101466.38;;;15.97;76.18
73981;BME280;62348;51.412;5.436;2022-10-16T14:21:30;101455.22;;;15.98;76.07
73981;BME280;62348;51.412;5.436;2022-10-16T14:23:57;101459.06;;;15.97;76.56
73981;BME280;62348;51.412;5.436;2022-10-16T14:26:25;101454.69;;;15.96;77.18
73981;BME280;62348;51.412;5.436;2022-10-16T14:29:27;101460.09;;;16.02;78.21
73981;BME280;62348;51.412;5.436;2022-10-16T14:32:01;101461.78;;;15.97;77.32
73981;BME280;62348;51.412;5.436;2022-10-16T14:34:37;101445.09;;;15.99;75.77